sensor_id;sensor_type;location;lat;lon;timestamp;pressure;altitude;pressure_sealevel;temperature;humidity
37304;BME280;23188;51.188;16.374;2022-12-07T00:02:08;99842.04;;;3.49;100.00
37304;BME280;23188;51.188;16.374;2022-12-07T00:06:12;99843.42;;;3.40;100.00
37304;BME280;23188;51.188;16.374;2022-12-07T00:10:14;99838.92;;;3.42;100.00
37304;BME280;23188;51.188;16.374;2022-12-07T00:14:17;99834.98;;;3.42;100.00
37304;BME280;23188;51.188;16.374;2022-12-07T00:18:19;99825.70;;;3.44;100.00
37304;BME280;23188;51.188;16.374;2022-12-07T00:22:20;99816.38;;;3.38;100.00
37304;BME280;23188;51.188;16.374;2022-12-07T00:26:24;99818.27;;;3.36;100.00
37304;BME280;23188;51.188;16.374;2022-12-07T00:30:27;99813.64;;;3.33;100.00
37304;BME280;23188;51.188;16.374;2022-12-07T00:34:29;99820.81;;;3.38;100.00
37304;BME280;23188;51.188;16.374;2022-12-07T00:38:32;99820.78;;;3.31;100.00
37304;BME280;23188;51.188;16.374;2022-12-07T00:42:35;99806.31;;;3.31;100.00
37304;BME280;23188;51.188;16.374;2022-12-07T00:46:36;99811.39;;;3.34;100.00
37304;BME280;23188;51.188;16.374;2022-12-07T00:50:37;99810.93;;;3.27;100.00
37304;BME280;23188;51.188;16.374;2022-12-07T00:54:39;99814.02;;;3.26;100.00
37304;BME280;23188;51.188;16.374;2022-12-07T00:58:41;99812.59;;;3.21;100.00
37304;BME280;23188;51.188;16.374;2022-12-07T01:02:42;99819.45;;;3.23;100.00
37304;BME280;23188;51.188;16.374;2022-12-07T01:06:43;99821.89;;;3.19;100.00
37304;BME280;23188;51.188;16.374;2022-12-07T01:10:45;99830.34;;;3.17;100.00
37304;BME280;23188;51.188;16.374;2022-12-07T01:14:46;99820.39;;;3.15;100.00
37304;BME280;23188;51.188;16.374;2022-12-07T01:18:50;99808.83;;;3.18;100.00
37304;BME280;23188;51.188;16.374;2022-12-07T01:22:52;99812.77;;;3.10;100.00
37304;BME280;23188;51.188;16.374;2022-12-07T01:26:53;99816.47;;;2.99;100.00
37304;BME280;23188;51.188;16.374;2022-12-07T01:35:12;99826.55;;;3.07;100.00
37304;BME280;23188;51.188;16.374;2022-12-07T01:39:13;99827.48;;;3.06;100.00
37304;BME280;23188;51.188;16.374;2022-12-07T01:43:18;99829.34;;;2.96;100.00
37304;BME280;23188;51.188;16.374;2022-12-07T01:47:20;99823.80;;;3.01;100.00
37304;BME280;23188;51.188;16.374;2022-12-07T01:51:21;99830.27;;;2.95;100.00
37304;BME280;23188;51.188;16.374;2022-12-07T01:55:22;99826.41;;;2.94;100.00
37304;BME280;23188;51.188;16.374;2022-12-07T01:59:25;99818.45;;;2.95;100.00
37304;BME280;23188;51.188;16.374;2022-12-07T02:03:36;99818.83;;;2.96;100.00
37304;BME280;23188;51.188;16.374;2022-12-07T02:07:39;99817.15;;;3.03;100.00
37304;BME280;23188;51.188;16.374;2022-12-07T02:11:41;99821.08;;;2.95;100.00
37304;BME280;23188;51.188;16.374;2022-12-07T02:15:59;99820.03;;;2.98;100.00
37304;BME280;23188;51.188;16.374;2022-12-07T02:20:25;99822.65;;;2.91;100.00
37304;BME280;23188;51.188;16.374;2022-12-07T02:24:46;99816.66;;;2.96;100.00
37304;BME280;23188;51.188;16.374;2022-12-07T02:29:16;99813.02;;;3.06;100.00
37304;BME280;23188;51.188;16.374;2022-12-07T02:33:31;99801.50;;;3.08;100.00
37304;BME280;23188;51.188;16.374;2022-12-07T02:42:15;99806.88;;;3.21;100.00
37304;BME280;23188;51.188;16.374;2022-12-07T02:46:21;99806.77;;;3.23;100.00
37304;BME280;23188;51.188;16.374;2022-12-07T02:50:34;99804.81;;;3.26;100.00
37304;BME280;23188;51.188;16.374;2022-12-07T02:54:35;99798.80;;;3.24;100.00
37304;BME280;23188;51.188;16.374;2022-12-07T03:03:04;99799.17;;;3.18;100.00
37304;BME280;23188;51.188;16.374;2022-12-07T03:11:55;99795.13;;;3.12;100.00
37304;BME280;23188;51.188;16.374;2022-12-07T03:16:15;99791.29;;;3.18;100.00
37304;BME280;23188;51.188;16.374;2022-12-07T03:20:20;99783.75;;;3.12;100.00
37304;BME280;23188;51.188;16.374;2022-12-07T03:24:26;99781.42;;;3.14;100.00
37304;BME280;23188;51.188;16.374;2022-12-07T03:28:32;99781.72;;;3.24;100.00
37304;BME280;23188;51.188;16.374;2022-12-07T03:33:06;99775.89;;;3.34;100.00
37304;BME280;23188;51.188;16.374;2022-12-07T03:37:42;99776.11;;;3.38;100.00
37304;BME280;23188;51.188;16.374;2022-12-07T03:41:36;99779.38;;;3.34;100.00
37304;BME280;23188;51.188;16.374;2022-12-07T03:45:44;99774.77;;;3.31;100.00
37304;BME280;23188;51.188;16.374;2022-12-07T03:50:07;99770.45;;;3.29;100.00
37304;BME280;23188;51.188;16.374;2022-12-07T03:54:29;99764.81;;;3.28;100.00
37304;BME280;23188;51.188;16.374;2022-12-07T03:58:34;99758.35;;;3.34;100.00
37304;BME280;23188;51.188;16.374;2022-12-07T04:02:37;99756.77;;;3.39;100.00
37304;BME280;23188;51.188;16.374;2022-12-07T04:06:38;99760.89;;;3.43;100.00
37304;BME280;23188;51.188;16.374;2022-12-07T04:10:40;99768.52;;;3.48;100.00
37304;BME280;23188;51.188;16.374;2022-12-07T04:14:41;99768.41;;;3.49;100.00
37304;BME280;23188;51.188;16.374;2022-12-07T04:18:42;99772.16;;;3.52;100.00
37304;BME280;23188;51.188;16.374;2022-12-07T04:22:43;99760.99;;;3.56;100.00
37304;BME280;23188;51.188;16.374;2022-12-07T04:26:45;99759.48;;;3.59;100.00
37304;BME280;23188;51.188;16.374;2022-12-07T04:30:47;99759.21;;;3.64;100.00
37304;BME280;23188;51.188;16.374;2022-12-07T04:34:48;99761.39;;;3.64;100.00
37304;BME280;23188;51.188;16.374;2022-12-07T04:38:49;99768.70;;;3.66;100.00
37304;BME280;23188;51.188;16.374;2022-12-07T04:42:50;99754.33;;;3.65;100.00
37304;BME280;23188;51.188;16.374;2022-12-07T04:46:52;99751.69;;;3.65;100.00
37304;BME280;23188;51.188;16.374;2022-12-07T04:50:54;99748.69;;;3.64;100.00
37304;BME280;23188;51.188;16.374;2022-12-07T04:54:55;99747.65;;;3.59;100.00
37304;BME280;23188;51.188;16.374;2022-12-07T04:58:56;99750.29;;;3.52;100.00
37304;BME280;23188;51.188;16.374;2022-12-07T05:02:58;99743.33;;;3.58;100.00
37304;BME280;23188;51.188;16.374;2022-12-07T05:06:59;99746.64;;;3.54;100.00
37304;BME280;23188;51.188;16.374;2022-12-07T05:11:01;99746.62;;;3.47;100.00
37304;BME280;23188;51.188;16.374;2022-12-07T05:15:04;99733.39;;;3.49;100.00
37304;BME280;23188;51.188;16.374;2022-12-07T05:19:06;99738.17;;;3.42;100.00
37304;BME280;23188;51.188;16.374;2022-12-07T05:23:08;99735.14;;;3.34;100.00
37304;BME280;23188;51.188;16.374;2022-12-07T05:27:09;99741.19;;;3.36;100.00
37304;BME280;23188;51.188;16.374;2022-12-07T05:31:10;99740.03;;;3.33;100.00
37304;BME280;23188;51.188;16.374;2022-12-07T05:35:12;99735.44;;;3.36;100.00
37304;BME280;23188;51.188;16.374;2022-12-07T05:39:13;99740.99;;;3.39;100.00
37304;BME280;23188;51.188;16.374;2022-12-07T05:43:14;99744.00;;;3.40;100.00
37304;BME280;23188;51.188;16.374;2022-12-07T05:47:16;99742.68;;;3.40;100.00
37304;BME280;23188;51.188;16.374;2022-12-07T05:51:17;99727.08;;;3.29;100.00
37304;BME280;23188;51.188;16.374;2022-12-07T05:55:19;99743.34;;;3.29;100.00
37304;BME280;23188;51.188;16.374;2022-12-07T05:59:20;99723.05;;;3.31;100.00
37304;BME280;23188;51.188;16.374;2022-12-07T06:03:25;99747.09;;;3.25;100.00
37304;BME280;23188;51.188;16.374;2022-12-07T06:07:26;99730.08;;;3.31;100.00
37304;BME280;23188;51.188;16.374;2022-12-07T06:11:28;99737.77;;;3.34;100.00
37304;BME280;23188;51.188;16.374;2022-12-07T06:15:47;99726.51;;;3.32;100.00
37304;BME280;23188;51.188;16.374;2022-12-07T06:19:49;99730.30;;;3.35;100.00
37304;BME280;23188;51.188;16.374;2022-12-07T06:23:50;99731.77;;;3.32;99.22
37304;BME280;23188;51.188;16.374;2022-12-07T06:27:51;99729.14;;;3.32;99.80
37304;BME280;23188;51.188;16.374;2022-12-07T06:31:53;99735.52;;;3.27;98.70
37304;BME280;23188;51.188;16.374;2022-12-07T06:35:54;99728.39;;;3.22;98.97
37304;BME280;23188;51.188;16.374;2022-12-07T06:39:56;99728.28;;;3.24;99.06
37304;BME280;23188;51.188;16.374;2022-12-07T06:43:57;99734.77;;;3.25;99.54
37304;BME280;23188;51.188;16.374;2022-12-07T06:47:58;99732.33;;;3.29;100.00
37304;BME280;23188;51.188;16.374;2022-12-07T06:51:59;99733.45;;;3.33;100.00
37304;BME280;23188;51.188;16.374;2022-12-07T06:56:01;99730.64;;;3.28;100.00
37304;BME280;23188;51.188;16.374;2022-12-07T07:00:03;99737.13;;;3.30;100.00
37304;BME280;23188;51.188;16.374;2022-12-07T07:04:05;99740.22;;;3.29;100.00
37304;BME280;23188;51.188;16.374;2022-12-07T07:08:06;99738.16;;;3.27;100.00
37304;BME280;23188;51.188;16.374;2022-12-07T07:12:07;99731.95;;;3.28;100.00
37304;BME280;23188;51.188;16.374;2022-12-07T07:16:09;99738.72;;;3.33;100.00
37304;BME280;23188;51.188;16.374;2022-12-07T07:20:11;99726.80;;;3.34;100.00
37304;BME280;23188;51.188;16.374;2022-12-07T07:24:13;99722.96;;;3.40;100.00
37304;BME280;23188;51.188;16.374;2022-12-07T07:28:14;99721.27;;;3.39;100.00
37304;BME280;23188;51.188;16.374;2022-12-07T07:32:16;99718.45;;;3.42;100.00
37304;BME280;23188;51.188;16.374;2022-12-07T07:36:17;99730.17;;;3.43;100.00
37304;BME280;23188;51.188;16.374;2022-12-07T07:40:19;99730.76;;;3.49;100.00
37304;BME280;23188;51.188;16.374;2022-12-07T07:44:20;99722.19;;;3.52;100.00
37304;BME280;23188;51.188;16.374;2022-12-07T07:48:22;99724.09;;;3.57;99.35
37304;BME280;23188;51.188;16.374;2022-12-07T07:52:25;99730.20;;;3.65;99.12
37304;BME280;23188;51.188;16.374;2022-12-07T07:56:27;99729.16;;;3.75;99.05
37304;BME280;23188;51.188;16.374;2022-12-07T08:00:28;99722.84;;;3.85;98.25
37304;BME280;23188;51.188;16.374;2022-12-07T08:04:29;99732.69;;;3.96;97.29
37304;BME280;23188;51.188;16.374;2022-12-07T08:08:30;99729.95;;;4.05;96.25
37304;BME280;23188;51.188;16.374;2022-12-07T08:12:41;99729.17;;;4.10;95.28
37304;BME280;23188;51.188;16.374;2022-12-07T08:17:01;99719.30;;;4.13;94.48
37304;BME280;23188;51.188;16.374;2022-12-07T08:21:04;99715.44;;;4.12;94.06
37304;BME280;23188;51.188;16.374;2022-12-07T08:25:05;99710.63;;;4.19;93.87
37304;BME280;23188;51.188;16.374;2022-12-07T08:29:07;99712.03;;;4.24;93.56
37304;BME280;23188;51.188;16.374;2022-12-07T08:33:09;99711.83;;;4.20;92.39
37304;BME280;23188;51.188;16.374;2022-12-07T08:37:11;99713.92;;;4.15;90.95
37304;BME280;23188;51.188;16.374;2022-12-07T08:41:12;99716.47;;;4.17;90.98
37304;BME280;23188;51.188;16.374;2022-12-07T08:45:14;99712.77;;;4.19;90.99
37304;BME280;23188;51.188;16.374;2022-12-07T08:49:25;99714.05;;;4.34;92.66
37304;BME280;23188;51.188;16.374;2022-12-07T08:53:29;99713.34;;;4.45;91.81
37304;BME280;23188;51.188;16.374;2022-12-07T08:57:32;99697.45;;;4.46;90.54
37304;BME280;23188;51.188;16.374;2022-12-07T09:01:35;99693.02;;;4.47;90.43
37304;BME280;23188;51.188;16.374;2022-12-07T09:05:36;99696.36;;;4.36;89.68
37304;BME280;23188;51.188;16.374;2022-12-07T09:09:37;99684.62;;;4.34;90.30
37304;BME280;23188;51.188;16.374;2022-12-07T09:13:38;99684.42;;;4.37;90.42
37304;BME280;23188;51.188;16.374;2022-12-07T09:17:40;99679.73;;;4.35;90.92
37304;BME280;23188;51.188;16.374;2022-12-07T09:21:41;99671.38;;;4.49;91.44
37304;BME280;23188;51.188;16.374;2022-12-07T09:25:42;99664.58;;;4.52;90.55
37304;BME280;23188;51.188;16.374;2022-12-07T09:29:43;99652.05;;;4.55;90.60
37304;BME280;23188;51.188;16.374;2022-12-07T09:33:45;99652.13;;;4.61;90.72
37304;BME280;23188;51.188;16.374;2022-12-07T09:37:46;99649.80;;;4.69;89.13
37304;BME280;23188;51.188;16.374;2022-12-07T09:41:47;99653.82;;;4.75;90.02
37304;BME280;23188;51.188;16.374;2022-12-07T09:45:51;99656.73;;;4.78;89.87
37304;BME280;23188;51.188;16.374;2022-12-07T09:49:59;99645.61;;;4.80;91.34
37304;BME280;23188;51.188;16.374;2022-12-07T09:54:01;99644.51;;;4.77;92.42
37304;BME280;23188;51.188;16.374;2022-12-07T09:58:03;99652.72;;;4.72;93.27
37304;BME280;23188;51.188;16.374;2022-12-07T10:06:35;99650.23;;;4.63;94.56
37304;BME280;23188;51.188;16.374;2022-12-07T10:10:36;99653.81;;;4.62;95.49
37304;BME280;23188;51.188;16.374;2022-12-07T10:14:54;99647.38;;;4.66;96.67
37304;BME280;23188;51.188;16.374;2022-12-07T10:19:23;99631.14;;;4.60;96.45
37304;BME280;23188;51.188;16.374;2022-12-07T10:23:25;99635.31;;;4.69;98.70
37304;BME280;23188;51.188;16.374;2022-12-07T10:27:30;99632.50;;;4.73;97.78
37304;BME280;23188;51.188;16.374;2022-12-07T10:31:32;99628.14;;;4.71;97.87
37304;BME280;23188;51.188;16.374;2022-12-07T10:35:35;99623.95;;;4.69;98.11
37304;BME280;23188;51.188;16.374;2022-12-07T10:39:56;99624.98;;;4.66;98.03
37304;BME280;23188;51.188;16.374;2022-12-07T10:43:58;99626.37;;;4.72;99.42
37304;BME280;23188;51.188;16.374;2022-12-07T10:48:18;99625.11;;;4.78;98.25
37304;BME280;23188;51.188;16.374;2022-12-07T11:06:27;99632.31;;;4.68;99.45
37304;BME280;23188;51.188;16.374;2022-12-07T11:10:43;99624.53;;;4.67;100.00
37304;BME280;23188;51.188;16.374;2022-12-07T11:15:01;99622.48;;;4.65;99.27
37304;BME280;23188;51.188;16.374;2022-12-07T11:23:47;99628.36;;;4.68;99.49
37304;BME280;23188;51.188;16.374;2022-12-07T11:37:02;99614.36;;;4.81;98.21
37304;BME280;23188;51.188;16.374;2022-12-07T11:41:06;99598.13;;;4.74;98.37
37304;BME280;23188;51.188;16.374;2022-12-07T11:49:47;99599.72;;;4.77;99.51
37304;BME280;23188;51.188;16.374;2022-12-07T11:54:05;99589.63;;;4.76;100.00
37304;BME280;23188;51.188;16.374;2022-12-07T12:06:51;99576.15;;;4.81;99.05
37304;BME280;23188;51.188;16.374;2022-12-07T12:20:30;99573.83;;;5.02;99.39
37304;BME280;23188;51.188;16.374;2022-12-07T12:24:49;99566.10;;;4.99;97.33
37304;BME280;23188;51.188;16.374;2022-12-07T12:29:05;99577.14;;;4.98;97.60
37304;BME280;23188;51.188;16.374;2022-12-07T12:37:40;99577.36;;;4.95;98.46
37304;BME280;23188;51.188;16.374;2022-12-07T12:46:35;99570.06;;;4.99;98.50
37304;BME280;23188;51.188;16.374;2022-12-07T12:50:25;99562.27;;;4.97;97.43
37304;BME280;23188;51.188;16.374;2022-12-07T12:54:32;99557.85;;;4.85;97.41
37304;BME280;23188;51.188;16.374;2022-12-07T12:58:37;99561.42;;;4.97;97.71
37304;BME280;23188;51.188;16.374;2022-12-07T13:02:54;99565.91;;;5.02;97.70
37304;BME280;23188;51.188;16.374;2022-12-07T13:06:57;99569.59;;;4.99;96.98
37304;BME280;23188;51.188;16.374;2022-12-07T13:11:15;99562.52;;;5.00;96.49
37304;BME280;23188;51.188;16.374;2022-12-07T13:15:26;99571.33;;;5.06;96.44
37304;BME280;23188;51.188;16.374;2022-12-07T13:27:59;99563.54;;;4.92;92.63
37304;BME280;23188;51.188;16.374;2022-12-07T13:32:17;99565.44;;;4.90;94.01
37304;BME280;23188;51.188;16.374;2022-12-07T13:36:23;99562.69;;;4.91;93.28
37304;BME280;23188;51.188;16.374;2022-12-07T13:40:26;99558.91;;;4.95;93.81
37304;BME280;23188;51.188;16.374;2022-12-07T13:44:28;99571.35;;;4.93;93.21
37304;BME280;23188;51.188;16.374;2022-12-07T13:48:33;99567.18;;;4.96;92.21
37304;BME280;23188;51.188;16.374;2022-12-07T13:52:45;99555.69;;;4.97;90.13
37304;BME280;23188;51.188;16.374;2022-12-07T13:56:51;99574.19;;;5.03;91.27
37304;BME280;23188;51.188;16.374;2022-12-07T14:00:53;99566.59;;;4.98;90.43
37304;BME280;23188;51.188;16.374;2022-12-07T14:05:14;99577.38;;;5.01;90.00
37304;BME280;23188;51.188;16.374;2022-12-07T14:09:24;99572.09;;;4.95;89.33
37304;BME280;23188;51.188;16.374;2022-12-07T14:13:38;99576.55;;;5.00;91.20
37304;BME280;23188;51.188;16.374;2022-12-07T14:17:50;99584.45;;;5.00;90.39
37304;BME280;23188;51.188;16.374;2022-12-07T14:26:34;99584.92;;;5.00;91.22
37304;BME280;23188;51.188;16.374;2022-12-07T14:30:35;99582.80;;;4.86;90.37
37304;BME280;23188;51.188;16.374;2022-12-07T14:34:36;99589.11;;;4.84;90.10
37304;BME280;23188;51.188;16.374;2022-12-07T14:38:37;99586.27;;;4.74;90.40
37304;BME280;23188;51.188;16.374;2022-12-07T14:42:39;99591.84;;;4.69;90.24
37304;BME280;23188;51.188;16.374;2022-12-07T14:46:40;99593.89;;;4.58;90.87
37304;BME280;23188;51.188;16.374;2022-12-07T14:50:49;99588.25;;;4.45;91.63
37304;BME280;23188;51.188;16.374;2022-12-07T14:54:52;99591.98;;;4.35;92.41
37304;BME280;23188;51.188;16.374;2022-12-07T14:58:53;99583.77;;;4.26;92.94
37304;BME280;23188;51.188;16.374;2022-12-07T15:02:55;99590.16;;;4.22;93.34
37304;BME280;23188;51.188;16.374;2022-12-07T15:06:59;99593.11;;;4.18;93.40
37304;BME280;23188;51.188;16.374;2022-12-07T15:11:01;99595.38;;;4.17;93.64
37304;BME280;23188;51.188;16.374;2022-12-07T15:15:04;99598.47;;;4.16;93.92
37304;BME280;23188;51.188;16.374;2022-12-07T15:19:12;99601.23;;;4.07;94.65
37304;BME280;23188;51.188;16.374;2022-12-07T15:23:18;99598.23;;;4.06;94.83
37304;BME280;23188;51.188;16.374;2022-12-07T15:27:19;99598.80;;;4.04;95.75
37304;BME280;23188;51.188;16.374;2022-12-07T15:31:20;99608.96;;;4.03;96.45
37304;BME280;23188;51.188;16.374;2022-12-07T15:35:26;99611.19;;;4.09;96.42
37304;BME280;23188;51.188;16.374;2022-12-07T15:39:25;99606.66;;;4.11;96.68
37304;BME280;23188;51.188;16.374;2022-12-07T15:43:26;99610.80;;;4.16;97.23
37304;BME280;23188;51.188;16.374;2022-12-07T15:47:48;99609.48;;;4.16;97.58
37304;BME280;23188;51.188;16.374;2022-12-07T15:51:49;99612.07;;;4.23;97.61
37304;BME280;23188;51.188;16.374;2022-12-07T15:55:50;99620.66;;;4.32;97.41
37304;BME280;23188;51.188;16.374;2022-12-07T15:59:52;99613.98;;;4.34;96.80
37304;BME280;23188;51.188;16.374;2022-12-07T16:03:54;99613.53;;;4.34;96.02
37304;BME280;23188;51.188;16.374;2022-12-07T16:07:57;99617.06;;;4.40;95.63
37304;BME280;23188;51.188;16.374;2022-12-07T16:11:59;99619.11;;;4.42;94.86
37304;BME280;23188;51.188;16.374;2022-12-07T16:16:05;99615.39;;;4.32;94.39
37304;BME280;23188;51.188;16.374;2022-12-07T16:20:08;99612.97;;;4.29;94.00
37304;BME280;23188;51.188;16.374;2022-12-07T16:24:10;99621.49;;;4.20;94.27
37304;BME280;23188;51.188;16.374;2022-12-07T16:28:14;99615.13;;;4.09;94.41
37304;BME280;23188;51.188;16.374;2022-12-07T16:32:15;99610.28;;;4.03;94.47
37304;BME280;23188;51.188;16.374;2022-12-07T16:36:17;99618.30;;;3.94;94.88
37304;BME280;23188;51.188;16.374;2022-12-07T16:40:19;99614.27;;;3.89;95.22
37304;BME280;23188;51.188;16.374;2022-12-07T16:44:20;99616.83;;;3.83;95.42
37304;BME280;23188;51.188;16.374;2022-12-07T16:48:21;99617.34;;;3.75;95.83
37304;BME280;23188;51.188;16.374;2022-12-07T16:52:23;99619.98;;;3.68;96.14
37304;BME280;23188;51.188;16.374;2022-12-07T16:56:24;99624.12;;;3.65;96.05
37304;BME280;23188;51.188;16.374;2022-12-07T17:00:27;99612.40;;;3.56;96.04
37304;BME280;23188;51.188;16.374;2022-12-07T17:04:28;99618.14;;;3.55;95.98
37304;BME280;23188;51.188;16.374;2022-12-07T17:08:29;99612.31;;;3.50;95.70
37304;BME280;23188;51.188;16.374;2022-12-07T17:12:30;99617.39;;;3.46;95.47
37304;BME280;23188;51.188;16.374;2022-12-07T17:16:32;99616.48;;;3.40;95.38
37304;BME280;23188;51.188;16.374;2022-12-07T17:20:33;99609.81;;;3.34;95.82
37304;BME280;23188;51.188;16.374;2022-12-07T17:24:34;99611.03;;;3.28;95.84
37304;BME280;23188;51.188;16.374;2022-12-07T17:28:36;99607.66;;;3.26;95.92
37304;BME280;23188;51.188;16.374;2022-12-07T17:32:38;99616.31;;;3.21;95.77
37304;BME280;23188;51.188;16.374;2022-12-07T17:36:40;99612.36;;;3.21;95.72
37304;BME280;23188;51.188;16.374;2022-12-07T17:40:42;99619.41;;;3.13;96.13
37304;BME280;23188;51.188;16.374;2022-12-07T17:44:43;99621.17;;;3.13;96.56
37304;BME280;23188;51.188;16.374;2022-12-07T17:48:44;99620.80;;;3.12;97.15
37304;BME280;23188;51.188;16.374;2022-12-07T17:52:45;99621.56;;;3.07;97.15
37304;BME280;23188;51.188;16.374;2022-12-07T17:57:05;99621.19;;;3.06;97.35
37304;BME280;23188;51.188;16.374;2022-12-07T18:01:09;99619.50;;;3.05;97.63
37304;BME280;23188;51.188;16.374;2022-12-07T18:05:11;99629.64;;;3.04;97.48
37304;BME280;23188;51.188;16.374;2022-12-07T18:09:12;99629.27;;;3.03;98.10
37304;BME280;23188;51.188;16.374;2022-12-07T18:13:13;99625.32;;;3.03;98.17
37304;BME280;23188;51.188;16.374;2022-12-07T18:17:32;99621.38;;;3.03;98.71
37304;BME280;23188;51.188;16.374;2022-12-07T18:21:34;99619.50;;;3.05;98.78
37304;BME280;23188;51.188;16.374;2022-12-07T18:25:35;99620.16;;;3.08;98.66
37304;BME280;23188;51.188;16.374;2022-12-07T18:29:36;99616.68;;;3.08;98.82
37304;BME280;23188;51.188;16.374;2022-12-07T18:33:39;99614.44;;;3.02;99.67
37304;BME280;23188;51.188;16.374;2022-12-07T18:37:41;99616.50;;;3.04;99.76
37304;BME280;23188;51.188;16.374;2022-12-07T18:41:42;99620.89;;;3.03;100.00
37304;BME280;23188;51.188;16.374;2022-12-07T18:45:44;99618.37;;;3.09;100.00
37304;BME280;23188;51.188;16.374;2022-12-07T18:49:48;99620.16;;;3.08;99.80
37304;BME280;23188;51.188;16.374;2022-12-07T18:53:50;99621.94;;;3.08;99.87
37304;BME280;23188;51.188;16.374;2022-12-07T18:57:52;99619.11;;;3.11;99.84
37304;BME280;23188;51.188;16.374;2022-12-07T19:01:54;99623.43;;;3.12;100.00
37304;BME280;23188;51.188;16.374;2022-12-07T19:05:56;99627.09;;;3.17;100.00
37304;BME280;23188;51.188;16.374;2022-12-07T19:09:58;99624.19;;;3.21;99.79
37304;BME280;23188;51.188;16.374;2022-12-07T19:13:59;99628.96;;;3.22;99.55
37304;BME280;23188;51.188;16.374;2022-12-07T19:18:00;99625.31;;;3.24;99.42
37304;BME280;23188;51.188;16.374;2022-12-07T19:22:02;99627.37;;;3.26;99.07
37304;BME280;23188;51.188;16.374;2022-12-07T19:26:04;99622.98;;;3.27;98.95
37304;BME280;23188;51.188;16.374;2022-12-07T19:30:06;99622.86;;;3.28;99.04
37304;BME280;23188;51.188;16.374;2022-12-07T19:34:11;99623.61;;;3.31;99.29
37304;BME280;23188;51.188;16.374;2022-12-07T19:38:15;99619.38;;;3.35;99.06
37304;BME280;23188;51.188;16.374;2022-12-07T19:42:17;99621.93;;;3.37;98.85
37304;BME280;23188;51.188;16.374;2022-12-07T19:46:18;99634.88;;;3.40;98.88
37304;BME280;23188;51.188;16.374;2022-12-07T19:50:19;99626.51;;;3.40;98.82
37304;BME280;23188;51.188;16.374;2022-12-07T19:54:23;99625.11;;;3.42;98.65
37304;BME280;23188;51.188;16.374;2022-12-07T19:58:26;99623.99;;;3.39;98.45
37304;BME280;23188;51.188;16.374;2022-12-07T20:02:28;99625.30;;;3.32;98.41
37304;BME280;23188;51.188;16.374;2022-12-07T20:06:29;99621.72;;;3.33;98.43
37304;BME280;23188;51.188;16.374;2022-12-07T20:10:31;99621.19;;;3.35;99.77
37304;BME280;23188;51.188;16.374;2022-12-07T20:14:34;99629.51;;;3.41;100.00
37304;BME280;23188;51.188;16.374;2022-12-07T20:18:35;99632.41;;;3.51;100.00
37304;BME280;23188;51.188;16.374;2022-12-07T20:22:36;99630.24;;;3.65;100.00
37304;BME280;23188;51.188;16.374;2022-12-07T20:26:38;99635.56;;;3.71;100.00
37304;BME280;23188;51.188;16.374;2022-12-07T20:30:52;99634.33;;;3.77;100.00
37304;BME280;23188;51.188;16.374;2022-12-07T20:34:51;99635.90;;;3.86;100.00
37304;BME280;23188;51.188;16.374;2022-12-07T20:38:54;99628.66;;;3.90;100.00
37304;BME280;23188;51.188;16.374;2022-12-07T20:42:55;99627.80;;;3.97;100.00
37304;BME280;23188;51.188;16.374;2022-12-07T20:46:57;99621.09;;;4.06;99.61
37304;BME280;23188;51.188;16.374;2022-12-07T20:51:04;99629.41;;;4.12;99.12
37304;BME280;23188;51.188;16.374;2022-12-07T20:55:06;99625.37;;;4.14;98.17
37304;BME280;23188;51.188;16.374;2022-12-07T20:59:11;99625.53;;;4.18;97.09
37304;BME280;23188;51.188;16.374;2022-12-07T21:03:13;99627.50;;;4.22;96.79
37304;BME280;23188;51.188;16.374;2022-12-07T21:07:15;99618.38;;;4.20;96.12
37304;BME280;23188;51.188;16.374;2022-12-07T21:11:18;99614.17;;;4.18;95.11
37304;BME280;23188;51.188;16.374;2022-12-07T21:15:19;99611.87;;;4.06;94.82
37304;BME280;23188;51.188;16.374;2022-12-07T21:19:21;99630.52;;;3.95;95.44
37304;BME280;23188;51.188;16.374;2022-12-07T21:23:22;99624.42;;;3.88;95.80
37304;BME280;23188;51.188;16.374;2022-12-07T21:27:23;99633.87;;;3.70;96.81
37304;BME280;23188;51.188;16.374;2022-12-07T21:31:24;99628.30;;;3.54;97.43
37304;BME280;23188;51.188;16.374;2022-12-07T21:35:27;99639.19;;;3.55;97.54
37304;BME280;23188;51.188;16.374;2022-12-07T21:39:28;99646.14;;;3.42;98.40
37304;BME280;23188;51.188;16.374;2022-12-07T21:43:30;99637.80;;;3.28;98.95
37304;BME280;23188;51.188;16.374;2022-12-07T21:47:31;99642.02;;;3.09;100.00
37304;BME280;23188;51.188;16.374;2022-12-07T21:51:33;99637.69;;;2.93;100.00
37304;BME280;23188;51.188;16.374;2022-12-07T21:55:40;99642.95;;;2.79;100.00
37304;BME280;23188;51.188;16.374;2022-12-07T21:59:42;99648.09;;;2.66;100.00
37304;BME280;23188;51.188;16.374;2022-12-07T22:03:44;99647.05;;;2.61;100.00
37304;BME280;23188;51.188;16.374;2022-12-07T22:07:46;99645.62;;;2.55;100.00
37304;BME280;23188;51.188;16.374;2022-12-07T22:11:48;99654.12;;;2.45;100.00
37304;BME280;23188;51.188;16.374;2022-12-07T22:15:49;99651.80;;;2.47;100.00
37304;BME280;23188;51.188;16.374;2022-12-07T22:19:50;99647.42;;;2.62;100.00
37304;BME280;23188;51.188;16.374;2022-12-07T22:23:52;99652.59;;;2.78;100.00
37304;BME280;23188;51.188;16.374;2022-12-07T22:27:53;99648.31;;;2.92;100.00
37304;BME280;23188;51.188;16.374;2022-12-07T22:31:54;99657.60;;;3.05;100.00
37304;BME280;23188;51.188;16.374;2022-12-07T22:35:56;99658.53;;;3.11;99.43
37304;BME280;23188;51.188;16.374;2022-12-07T22:39:57;99663.05;;;3.09;99.05
37304;BME280;23188;51.188;16.374;2022-12-07T22:43:59;99661.27;;;3.17;99.53
37304;BME280;23188;51.188;16.374;2022-12-07T22:48:01;99657.98;;;3.20;100.00
37304;BME280;23188;51.188;16.374;2022-12-07T22:52:02;99653.84;;;3.31;100.00
37304;BME280;23188;51.188;16.374;2022-12-07T22:56:04;99656.27;;;3.48;100.00
37304;BME280;23188;51.188;16.374;2022-12-07T23:00:07;99655.69;;;3.65;100.00